createdAt,value
2023-04-01T00:02:23.047Z,3.05
2023-04-01T00:04:51.081Z,3.17
2023-04-01T00:07:19.346Z,2.72
2023-04-01T00:09:47.505Z,3.78
2023-04-01T00:12:15.574Z,3.25
2023-04-01T00:14:44.319Z,4.38
2023-04-01T00:17:12.475Z,2.20
2023-04-01T00:19:41.984Z,4.95
2023-04-01T00:22:12.497Z,4.15
2023-04-01T00:24:40.651Z,2.72
2023-04-01T00:27:09.742Z,3.08
2023-04-01T00:29:37.573Z,1.03
2023-04-01T00:32:05.549Z,2.33
2023-04-01T00:34:34.310Z,2.47
2023-04-01T00:37:03.395Z,3.22
2023-04-01T00:39:32.322Z,2.47
2023-04-01T00:42:00.509Z,4.25
2023-04-01T00:44:29.917Z,2.60
2023-04-01T00:46:58.581Z,2.42
2023-04-01T00:49:28.862Z,4.40
2023-04-01T00:51:58.474Z,1.83
2023-04-01T00:56:58.920Z,1.85
2023-04-01T00:59:28.652Z,1.75
2023-04-01T01:01:56.457Z,2.30
2023-04-01T01:04:25.582Z,3.80
2023-04-01T01:06:56.787Z,2.65
2023-04-01T01:09:37.146Z,2.22
2023-04-01T01:12:11.520Z,1.80
2023-04-01T01:14:45.610Z,2.33
2023-04-01T01:17:15.668Z,2.78
2023-04-01T01:19:53.010Z,4.78
2023-04-01T01:22:41.997Z,2.42
2023-04-01T01:25:16.449Z,2.13
2023-04-01T01:27:50.402Z,2.70
2023-04-01T01:30:28.807Z,1.88
2023-04-01T01:33:15.912Z,1.88
2023-04-01T01:35:46.783Z,2.15
2023-04-01T01:38:20.780Z,1.60
2023-04-01T01:40:59.315Z,1.58
2023-04-01T01:45:57.174Z,1.67
2023-04-01T01:48:27.652Z,0.73
2023-04-01T01:50:57.097Z,0.80
2023-04-01T01:53:25.361Z,1.58
2023-04-01T01:55:53.659Z,3.05
2023-04-01T01:58:24.289Z,2.30
2023-04-01T02:00:56.040Z,2.08
2023-04-01T02:03:25.016Z,2.25
2023-04-01T02:05:54.305Z,1.20
2023-04-01T02:08:26.324Z,2.22
2023-04-01T02:10:57.897Z,1.73
2023-04-01T02:13:32.529Z,2.08
2023-04-01T02:16:03.008Z,1.88
2023-04-01T02:18:32.712Z,2.38
2023-04-01T02:21:01.332Z,3.70
2023-04-01T02:23:34.417Z,1.90
2023-04-01T02:26:02.481Z,0.98
2023-04-01T02:28:31.981Z,1.52
2023-04-01T02:31:03.906Z,1.77
2023-04-01T02:33:32.551Z,3.72
2023-04-01T02:36:00.453Z,0.82
2023-04-01T02:38:29.247Z,0.55
2023-04-01T02:41:01.093Z,1.27
2023-04-01T02:43:30.170Z,2.00
2023-04-01T02:45:57.906Z,1.60
2023-04-01T02:48:26.111Z,0.82
2023-04-01T02:50:54.988Z,2.03
2023-04-01T02:53:22.882Z,4.10
2023-04-01T02:55:52.771Z,2.38
2023-04-01T02:58:23.984Z,0.98
2023-04-01T03:00:51.858Z,0.63
2023-04-01T03:03:19.730Z,0.82
2023-04-01T03:05:48.603Z,2.05
2023-04-01T03:08:16.321Z,1.08
2023-04-01T03:10:44.575Z,1.90
2023-04-01T03:13:12.779Z,2.58
2023-04-01T03:15:41.959Z,1.02
2023-04-01T03:18:09.701Z,1.13
2023-04-01T03:20:38.435Z,1.05
2023-04-01T03:23:06.157Z,0.45
2023-04-01T03:25:34.794Z,0.57
2023-04-01T03:28:03.854Z,1.85
2023-04-01T03:30:32.337Z,0.40
2023-04-01T03:33:01.729Z,0.95
2023-04-01T03:35:33.256Z,2.13
2023-04-01T03:38:01.262Z,0.40
2023-04-01T03:40:29.303Z,2.63
2023-04-01T03:42:58.144Z,1.85
2023-04-01T03:45:25.942Z,1.05
2023-04-01T03:47:54.158Z,2.20
2023-04-01T03:50:24.134Z,1.70
2023-04-01T03:52:52.182Z,1.00
2023-04-01T03:55:20.367Z,0.47
2023-04-01T03:57:49.839Z,0.70
2023-04-01T04:00:20.273Z,2.90
2023-04-01T04:02:54.767Z,1.42
2023-04-01T04:05:29.547Z,2.47
2023-04-01T04:07:58.312Z,1.30
2023-04-01T04:10:26.163Z,1.23
2023-04-01T04:12:54.815Z,0.68
2023-04-01T04:15:26.950Z,1.70
2023-04-01T04:17:54.809Z,1.75
2023-04-01T04:20:22.714Z,1.30
2023-04-01T04:23:12.872Z,2.20
2023-04-01T04:25:42.292Z,3.13
2023-04-01T04:28:10.670Z,1.52
2023-04-01T04:30:38.998Z,3.78
2023-04-01T04:33:07.466Z,4.03
2023-04-01T04:35:35.395Z,1.25
2023-04-01T04:38:04.596Z,0.75
2023-04-01T04:40:35.077Z,2.03
2023-04-01T04:43:03.415Z,0.65
2023-04-01T04:45:31.901Z,1.83
2023-04-01T04:48:00.716Z,0.60
2023-04-01T04:50:29.288Z,2.15
2023-04-01T04:52:58.040Z,1.30
2023-04-01T04:55:25.939Z,1.15
2023-04-01T04:58:16.166Z,1.77
2023-04-01T05:00:45.505Z,1.10
2023-04-01T05:03:21.081Z,0.95
2023-04-01T05:05:52.526Z,1.20
2023-04-01T05:08:21.539Z,6.93
2023-04-01T05:10:49.361Z,1.25
2023-04-01T05:13:18.631Z,3.50
2023-04-01T05:15:49.066Z,3.55
2023-04-01T05:18:18.028Z,1.23
2023-04-01T05:20:50.169Z,1.60
2023-04-01T05:23:18.085Z,1.63
2023-04-01T05:25:46.307Z,1.88
2023-04-01T05:28:15.433Z,1.73
2023-04-01T05:30:47.700Z,1.60
2023-04-01T05:33:27.659Z,2.17
2023-04-01T05:35:55.718Z,1.67
2023-04-01T05:38:23.734Z,1.90
2023-04-01T05:40:52.378Z,1.90
2023-04-01T05:43:20.472Z,1.42
2023-04-01T05:45:52.514Z,1.83
2023-04-01T05:48:37.358Z,1.00
2023-04-01T05:51:06.253Z,1.02
2023-04-01T05:53:34.182Z,3.53
2023-04-01T05:56:04.160Z,3.67
2023-04-01T05:58:37.387Z,0.85
2023-04-01T06:01:11.428Z,1.42
2023-04-01T06:03:44.365Z,1.10
2023-04-01T06:06:16.546Z,0.77
2023-04-01T06:08:45.410Z,1.20
2023-04-01T06:11:19.341Z,2.15
2023-04-01T06:14:02.115Z,1.10
2023-04-01T06:16:37.731Z,0.60
2023-04-01T06:19:12.436Z,0.50
2023-04-01T06:22:04.361Z,0.60
2023-04-01T06:24:43.100Z,1.95
2023-04-01T06:27:17.483Z,1.08
2023-04-01T06:30:06.224Z,0.93
2023-04-01T06:32:48.884Z,0.98
2023-04-01T06:35:25.544Z,0.80
2023-04-01T06:38:09.175Z,0.70
2023-04-01T06:40:46.486Z,2.85
2023-04-01T06:43:20.820Z,0.65
2023-04-01T06:46:24.833Z,2.78
2023-04-01T06:49:24.909Z,1.75
2023-04-01T06:52:18.457Z,2.65
2023-04-01T06:55:14.519Z,1.55
2023-04-01T06:58:23.290Z,1.40
2023-04-01T07:00:53.118Z,0.70
2023-04-01T07:05:52.035Z,1.58
2023-04-01T07:08:23.323Z,1.58
2023-04-01T07:10:56.202Z,2.40
2023-04-01T07:14:05.725Z,1.77
2023-04-01T07:16:36.675Z,1.58
2023-04-01T07:19:08.162Z,1.60
2023-04-01T07:22:00.459Z,0.80
2023-04-01T07:24:43.168Z,1.73
2023-04-01T07:27:12.438Z,1.45
2023-04-01T07:29:42.079Z,2.33
2023-04-01T07:34:44.754Z,1.20
2023-04-01T07:37:17.829Z,1.80
2023-04-01T07:39:51.315Z,2.03
2023-04-01T07:42:39.786Z,2.67
2023-04-01T07:45:12.596Z,2.40
2023-04-01T07:47:48.784Z,2.30
2023-04-01T07:50:21.956Z,2.38
2023-04-01T07:52:57.355Z,2.22
2023-04-01T07:55:31.236Z,1.92
2023-04-01T07:58:03.853Z,2.55
2023-04-01T08:00:37.434Z,2.45
2023-04-01T08:03:23.894Z,2.03
2023-04-01T08:05:57.001Z,1.27
2023-04-01T08:08:52.970Z,1.52
2023-04-01T08:14:36.753Z,2.35
2023-04-01T08:17:29.267Z,3.22
2023-04-01T08:20:01.731Z,1.50
2023-04-01T08:22:35.406Z,3.28
2023-04-01T08:25:13.974Z,4.53
2023-04-01T08:27:46.255Z,1.60
2023-04-01T08:30:19.333Z,3.83
2023-04-01T08:32:49.100Z,1.63
2023-04-01T08:35:22.063Z,1.85
2023-04-01T08:37:52.629Z,2.20
2023-04-01T08:40:38.184Z,2.67
2023-04-01T08:43:11.226Z,1.95
2023-04-01T08:45:56.758Z,2.95
2023-04-01T08:48:38.491Z,1.00
2023-04-01T08:51:27.495Z,1.45
2023-04-01T08:54:09.269Z,2.42
2023-04-01T08:56:42.797Z,1.83
2023-04-01T08:59:30.588Z,2.20
2023-04-01T09:02:14.474Z,1.88
2023-04-01T09:07:26.162Z,2.08
2023-04-01T09:10:08.684Z,1.73
2023-04-01T09:12:46.884Z,2.15
2023-04-01T09:15:23.158Z,1.40
2023-04-01T09:18:10.252Z,1.13
2023-04-01T09:21:00.585Z,1.80
2023-04-01T09:23:47.163Z,2.80
2023-04-01T09:26:23.234Z,3.78
2023-04-01T09:28:58.631Z,1.58
2023-04-01T09:31:43.270Z,1.65
2023-04-01T09:34:54.409Z,1.67
2023-04-01T09:37:31.570Z,1.45
2023-04-01T09:40:18.692Z,2.65
2023-04-01T09:43:05.191Z,1.92
2023-04-01T09:45:45.461Z,2.75
2023-04-01T09:48:27.199Z,4.05
2023-04-01T09:51:00.751Z,1.67
2023-04-01T09:53:35.336Z,1.38
2023-04-01T09:56:22.403Z,1.38
2023-04-01T09:59:14.392Z,0.80
2023-04-01T10:02:35.857Z,1.00
2023-04-01T10:05:23.725Z,1.00
2023-04-01T10:08:14.689Z,1.45
2023-04-01T10:11:04.132Z,1.88
2023-04-01T10:13:40.119Z,0.98
2023-04-01T10:16:21.939Z,1.88
2023-04-01T10:19:08.067Z,1.13
2023-04-01T10:21:54.725Z,1.25
2023-04-01T10:24:41.367Z,1.17
2023-04-01T10:27:34.253Z,0.80
2023-04-01T10:30:36.614Z,2.10
2023-04-01T10:33:23.293Z,2.60
2023-04-01T10:38:36.652Z,1.63
2023-04-01T10:41:19.066Z,2.92
2023-04-01T10:44:33.486Z,1.10
2023-04-01T10:47:24.582Z,4.43
2023-04-01T10:50:19.577Z,0.90
2023-04-01T10:53:01.768Z,0.95
2023-04-01T10:56:18.482Z,1.52
2023-04-01T10:59:17.749Z,0.90
2023-04-01T11:02:26.087Z,2.72
2023-04-01T11:05:30.835Z,1.75
2023-04-01T11:08:27.039Z,1.95
2023-04-01T11:11:12.755Z,1.42
2023-04-01T11:13:53.036Z,2.10
2023-04-01T11:16:31.373Z,1.75
2023-04-01T11:19:18.303Z,2.00
2023-04-01T11:22:04.115Z,1.90
2023-04-01T11:25:10.435Z,1.40
2023-04-01T11:28:01.561Z,3.03
2023-04-01T11:30:36.834Z,2.17
2023-04-01T11:33:06.146Z,1.77
2023-04-01T11:35:49.819Z,1.52
2023-04-01T11:38:24.739Z,1.83
2023-04-01T11:40:56.291Z,1.30
2023-04-01T11:43:49.700Z,1.92
2023-04-01T11:46:40.689Z,2.10
2023-04-01T11:49:18.960Z,2.28
2023-04-01T11:52:03.720Z,1.20
2023-04-01T11:54:42.484Z,1.55
2023-04-01T11:57:17.676Z,1.75
2023-04-01T12:00:10.084Z,1.85
2023-04-01T12:02:48.456Z,1.42
2023-04-01T12:05:32.549Z,1.33
2023-04-01T12:08:10.153Z,1.50
2023-04-01T12:10:42.454Z,2.67
2023-04-01T12:13:19.121Z,1.92
2023-04-01T12:15:55.409Z,1.55
2023-04-01T12:18:28.555Z,2.95
2023-04-01T12:20:59.720Z,2.22
2023-04-01T12:23:55.580Z,1.35
2023-04-01T12:26:35.840Z,1.00
2023-04-01T12:29:10.903Z,1.67
2023-04-01T12:31:43.527Z,2.40
2023-04-01T12:34:30.177Z,1.42
2023-04-01T12:37:06.690Z,1.48
2023-04-01T12:39:51.374Z,2.25
2023-04-01T12:42:25.137Z,2.53
2023-04-01T12:45:03.047Z,1.45
2023-04-01T12:47:44.793Z,2.03
2023-04-01T12:50:22.144Z,1.48
2023-04-01T12:52:58.519Z,1.55
2023-04-01T12:55:32.301Z,1.67
2023-04-01T12:58:08.398Z,2.22
2023-04-01T13:00:46.284Z,1.48
2023-04-01T13:03:33.783Z,3.67
2023-04-01T13:06:18.013Z,1.80
2023-04-01T13:08:54.115Z,1.60
2023-04-01T13:11:26.196Z,1.55
2023-04-01T13:14:10.393Z,1.20
2023-04-01T13:16:42.095Z,1.45
2023-04-01T13:19:11.975Z,0.73
2023-04-01T13:21:50.080Z,1.42
2023-04-01T13:24:25.773Z,0.70
2023-04-01T13:26:57.782Z,2.17
2023-04-01T13:29:28.750Z,1.70
2023-04-01T13:32:03.486Z,1.50
2023-04-01T13:34:38.642Z,2.20
2023-04-01T13:37:12.767Z,0.88
2023-04-01T13:39:56.952Z,1.10
2023-04-01T13:42:27.456Z,1.40
2023-04-01T13:44:59.008Z,2.53
2023-04-01T13:47:35.511Z,1.52
2023-04-01T13:50:32.085Z,1.42
2023-04-01T13:53:06.684Z,1.60
2023-04-01T13:55:48.670Z,2.22
2023-04-01T13:58:31.738Z,2.33
2023-04-01T14:01:06.954Z,3.20
2023-04-01T14:03:41.771Z,2.92
2023-04-01T14:06:24.056Z,2.05
2023-04-01T14:09:10.476Z,3.20
2023-04-01T14:11:43.737Z,1.80
2023-04-01T14:14:18.981Z,1.92
2023-04-01T14:16:58.010Z,2.60
2023-04-01T14:19:34.733Z,2.10
2023-04-01T14:22:08.181Z,2.10
2023-04-01T14:24:48.192Z,1.23
2023-04-01T14:27:25.874Z,2.72
2023-04-01T14:29:59.500Z,2.17
2023-04-01T14:32:30.870Z,1.92
2023-04-01T14:35:08.097Z,2.10
2023-04-01T14:37:50.304Z,2.15
2023-04-01T14:40:29.167Z,2.45
2023-04-01T14:43:17.417Z,2.45
2023-04-01T14:45:48.881Z,1.35
2023-04-01T14:48:24.092Z,2.35
2023-04-01T14:50:54.188Z,3.08
2023-04-01T14:53:28.442Z,2.28
2023-04-01T14:55:57.547Z,2.28
2023-04-01T14:58:27.452Z,2.87
2023-04-01T15:01:09.588Z,2.60
2023-04-01T15:03:40.953Z,3.22
2023-04-01T15:06:24.900Z,2.83
2023-04-01T15:08:58.467Z,3.17
2023-04-01T15:11:34.862Z,3.50
2023-04-01T15:14:28.416Z,5.45
2023-04-01T15:17:02.877Z,4.78
2023-04-01T15:20:00.360Z,3.65
2023-04-01T15:22:44.410Z,4.00
2023-04-01T15:25:21.023Z,3.67
2023-04-01T15:27:51.366Z,3.72
2023-04-01T15:30:23.790Z,3.97
2023-04-01T15:32:57.150Z,4.50
2023-04-01T15:35:34.830Z,3.63
2023-04-01T15:38:29.292Z,8.05
2023-04-01T15:40:59.627Z,3.38
2023-04-01T15:43:34.493Z,3.30
2023-04-01T15:46:16.739Z,3.65
2023-04-01T15:48:53.235Z,2.72
2023-04-01T15:51:39.281Z,3.10
2023-04-01T15:54:27.341Z,3.65
2023-04-01T15:57:04.573Z,2.80
2023-04-01T15:59:44.673Z,3.90
2023-04-01T16:02:19.006Z,2.40
2023-04-01T16:04:53.249Z,2.15
2023-04-01T16:07:31.466Z,2.25
2023-04-01T16:10:16.649Z,2.63
2023-04-01T16:12:53.206Z,2.90
2023-04-01T16:15:26.370Z,3.42
2023-04-01T16:18:06.933Z,4.07
2023-04-01T16:20:43.541Z,4.03
2023-04-01T16:23:15.856Z,1.45
2023-04-01T16:25:48.950Z,2.90
2023-04-01T16:28:22.113Z,1.52
2023-04-01T16:30:51.591Z,1.90
2023-04-01T16:33:24.231Z,2.63
2023-04-01T16:35:57.580Z,1.80
2023-04-01T16:38:27.479Z,4.85
2023-04-01T16:41:13.421Z,4.35
2023-04-01T16:43:47.323Z,3.15
2023-04-01T16:46:28.581Z,3.65
2023-04-01T16:49:02.835Z,2.95
2023-04-01T16:51:40.516Z,4.03
2023-04-01T16:54:13.069Z,3.00
2023-04-01T16:56:43.977Z,2.50
2023-04-01T16:59:17.258Z,3.30
2023-04-01T17:01:48.138Z,2.65
2023-04-01T17:04:21.709Z,1.73
2023-04-01T17:06:53.058Z,2.45
2023-04-01T17:09:28.962Z,2.53
2023-04-01T17:11:59.460Z,2.47
2023-04-01T17:14:30.270Z,2.88
2023-04-01T17:17:04.862Z,3.33
2023-04-01T17:19:39.441Z,3.03
2023-04-01T17:22:13.291Z,2.90
2023-04-01T17:24:46.400Z,3.30
2023-04-01T17:27:21.716Z,4.30
2023-04-01T17:30:02.380Z,5.43
2023-04-01T17:32:40.959Z,4.50
2023-04-01T17:35:14.436Z,3.63
2023-04-01T17:37:46.702Z,3.80
2023-04-01T17:40:23.034Z,3.35
2023-04-01T17:42:55.076Z,3.00
2023-04-01T17:45:26.257Z,2.83
2023-04-01T17:48:03.268Z,3.33
2023-04-01T17:50:39.144Z,2.70
2023-04-01T17:53:16.524Z,2.10
2023-04-01T17:55:55.000Z,2.58
2023-04-01T17:58:23.539Z,3.75
2023-04-01T18:01:04.582Z,6.82
2023-04-01T18:03:43.778Z,6.13
2023-04-01T18:06:17.027Z,9.40
2023-04-01T18:08:51.360Z,3.83
2023-04-01T18:11:24.464Z,4.10
2023-04-01T18:14:01.861Z,6.22
2023-04-01T18:16:36.508Z,4.72
2023-04-01T18:19:08.682Z,3.60
2023-04-01T18:21:43.926Z,3.58
2023-04-01T18:24:15.676Z,6.55
2023-04-01T18:26:45.728Z,5.35
2023-04-01T18:29:16.817Z,5.40
2023-04-01T18:31:48.225Z,4.65
2023-04-01T18:34:19.735Z,12.90
2023-04-01T18:36:53.997Z,4.57
2023-04-01T18:39:25.602Z,4.20
2023-04-01T18:41:58.674Z,4.57
2023-04-01T18:44:32.305Z,3.08
2023-04-01T18:47:05.920Z,4.47
2023-04-01T18:49:41.452Z,3.92
2023-04-01T18:52:16.257Z,4.93
2023-04-01T18:54:45.916Z,3.58
2023-04-01T18:57:15.601Z,3.33
2023-04-01T18:59:44.977Z,4.07
2023-04-01T19:02:28.881Z,5.05
2023-04-01T19:04:59.964Z,2.45
2023-04-01T19:07:42.606Z,3.15
2023-04-01T19:10:19.022Z,2.70
2023-04-01T19:12:53.217Z,4.25
2023-04-01T19:15:25.084Z,1.90
2023-04-01T19:18:05.609Z,2.25
2023-04-01T19:20:35.912Z,2.20
2023-04-01T19:23:21.545Z,2.83
2023-04-01T19:25:51.202Z,3.58
2023-04-01T19:28:25.217Z,5.00
2023-04-01T19:30:55.969Z,3.95
2023-04-01T19:33:36.104Z,4.95
2023-04-01T19:36:09.335Z,3.67
2023-04-01T19:38:41.177Z,2.53
2023-04-01T19:41:24.494Z,3.17
2023-04-01T19:44:00.907Z,4.10
2023-04-01T19:46:33.038Z,4.57
2023-04-01T19:49:13.848Z,5.93
2023-04-01T19:51:47.482Z,3.83
2023-04-01T19:54:21.559Z,4.20
2023-04-01T19:56:52.575Z,5.97
2023-04-01T19:59:21.667Z,4.47
2023-04-01T20:01:52.459Z,4.55
2023-04-01T20:04:24.061Z,4.07
2023-04-01T20:06:56.788Z,4.47
2023-04-01T20:09:36.981Z,4.65
2023-04-01T20:12:09.761Z,5.55
2023-04-01T20:14:41.078Z,4.95
2023-04-01T20:17:15.726Z,4.90
2023-04-01T20:19:44.772Z,5.18
2023-04-01T20:22:23.997Z,5.03
2023-04-01T20:24:54.049Z,4.50
2023-04-01T20:27:23.700Z,3.78
2023-04-01T20:30:01.833Z,4.30
2023-04-01T20:32:51.231Z,2.70
2023-04-01T20:35:28.479Z,2.90
2023-04-01T20:38:00.472Z,2.72
2023-04-01T20:40:39.176Z,4.00
2023-04-01T20:43:19.075Z,2.97
2023-04-01T20:45:51.164Z,3.55
2023-04-01T20:48:29.181Z,3.50
2023-04-01T20:51:00.232Z,5.90
2023-04-01T20:53:33.223Z,7.18
2023-04-01T20:56:13.084Z,5.28
2023-04-01T20:58:45.610Z,4.45
2023-04-01T21:01:18.342Z,5.18
2023-04-01T21:03:52.237Z,5.80
2023-04-01T21:06:37.931Z,6.50
2023-04-01T21:09:16.444Z,4.43
2023-04-01T21:11:51.345Z,4.47
2023-04-01T21:14:33.311Z,4.28
2023-04-01T21:17:05.114Z,4.88
2023-04-01T21:19:42.360Z,5.80
2023-04-01T21:22:20.585Z,5.78
2023-04-01T21:25:07.180Z,5.18
2023-04-01T21:27:46.756Z,4.97
2023-04-01T21:30:21.826Z,3.50
2023-04-01T21:32:58.793Z,3.97
2023-04-01T21:35:32.340Z,3.78
2023-04-01T21:38:09.914Z,3.63
2023-04-01T21:40:50.295Z,4.25
2023-04-01T21:45:57.794Z,4.00
2023-04-01T21:48:39.122Z,3.40
2023-04-01T21:51:21.865Z,4.63
2023-04-01T21:54:05.916Z,5.30
2023-04-01T21:56:53.557Z,6.10
2023-04-01T21:59:31.553Z,5.25
2023-04-01T22:02:20.365Z,4.38
2023-04-01T22:04:54.574Z,5.30
2023-04-01T22:07:23.385Z,5.00
2023-04-01T22:09:55.396Z,4.93
2023-04-01T22:12:28.051Z,5.38
2023-04-01T22:14:59.130Z,6.85
2023-04-01T22:17:31.585Z,5.47
2023-04-01T22:20:10.745Z,5.47
2023-04-01T22:22:43.260Z,4.55
2023-04-01T22:25:16.745Z,4.82
2023-04-01T22:27:48.579Z,4.60
2023-04-01T22:30:22.974Z,4.60
2023-04-01T22:32:52.749Z,5.47
2023-04-01T22:35:30.265Z,5.60
2023-04-01T22:38:01.151Z,5.43
2023-04-01T22:40:35.066Z,5.47
2023-04-01T22:43:04.327Z,5.55
2023-04-01T22:45:40.277Z,4.45
2023-04-01T22:48:11.128Z,4.22
2023-04-01T22:50:43.627Z,4.80
2023-04-01T22:53:19.808Z,5.22
2023-04-01T22:55:53.243Z,4.90
2023-04-01T22:58:26.205Z,4.40
2023-04-01T23:00:56.530Z,3.72
2023-04-01T23:03:29.045Z,3.22
2023-04-01T23:05:58.928Z,2.92
2023-04-01T23:08:55.156Z,2.95
2023-04-01T23:11:26.722Z,2.65
2023-04-01T23:13:56.736Z,4.57
2023-04-01T23:16:27.182Z,4.28
2023-04-01T23:18:58.508Z,2.72
2023-04-01T23:21:33.338Z,3.08
2023-04-01T23:24:05.710Z,4.00
2023-04-01T23:26:38.025Z,3.40
2023-04-01T23:29:07.034Z,3.65
2023-04-01T23:31:36.682Z,4.40
2023-04-01T23:34:06.984Z,4.13
2023-04-01T23:36:41.258Z,5.18
2023-04-01T23:39:20.848Z,4.10
2023-04-01T23:41:48.663Z,4.25
2023-04-01T23:44:17.328Z,5.32
2023-04-01T23:46:47.076Z,3.92
2023-04-01T23:49:16.405Z,4.45
2023-04-01T23:51:52.931Z,5.20
2023-04-01T23:54:43.628Z,3.45
2023-04-01T23:57:14.441Z,4.30
2023-04-01T23:59:42.350Z,3.63
